createdAt,value
2018-07-04T00:00:04.746Z,21.38
2018-07-04T00:04:22.212Z,21.31
2018-07-04T00:08:37.973Z,21.20
2018-07-04T00:12:54.673Z,21.14
2018-07-04T00:17:12.936Z,21.04
2018-07-04T00:21:27.873Z,20.93
2018-07-04T00:25:48.613Z,20.81
2018-07-04T00:30:08.296Z,20.74
2018-07-04T00:43:11.649Z,20.56
2018-07-04T00:47:26.494Z,20.53
2018-07-04T00:51:41.190Z,20.46
2018-07-04T00:55:55.872Z,20.42
2018-07-04T01:00:10.692Z,20.34
2018-07-04T01:04:25.343Z,20.26
2018-07-04T01:08:40.321Z,20.20
2018-07-04T01:12:55.263Z,20.15
2018-07-04T01:17:09.967Z,20.08
2018-07-04T01:21:24.674Z,20.03
2018-07-04T01:25:39.457Z,19.98
2018-07-04T01:29:54.267Z,19.93
2018-07-04T01:34:09.779Z,19.88
2018-07-04T01:38:24.505Z,19.81
2018-07-04T01:42:39.274Z,19.76
2018-07-04T01:46:53.874Z,19.65
2018-07-04T01:51:08.610Z,19.55
2018-07-04T01:55:23.464Z,19.50
2018-07-04T01:59:38.185Z,19.44
2018-07-04T02:03:52.829Z,19.43
2018-07-04T02:08:07.479Z,19.40
2018-07-04T02:12:22.185Z,19.36
2018-07-04T02:16:36.934Z,19.30
2018-07-04T02:20:51.639Z,19.22
2018-07-04T02:25:06.312Z,19.18
2018-07-04T02:29:21.116Z,19.12
2018-07-04T02:33:36.057Z,19.08
2018-07-04T02:37:50.745Z,19.03
2018-07-04T02:42:05.321Z,18.96
2018-07-04T02:46:25.333Z,18.92
2018-07-04T02:50:39.889Z,18.83
2018-07-04T02:54:54.718Z,18.77
2018-07-04T02:59:09.446Z,18.74
2018-07-04T03:03:24.166Z,18.69
2018-07-04T03:07:38.956Z,18.61
2018-07-04T03:11:55.487Z,18.63
2018-07-04T03:16:10.203Z,18.63
2018-07-04T03:20:24.918Z,18.60
2018-07-04T03:24:39.649Z,18.53
2018-07-04T03:28:54.270Z,18.49
2018-07-04T03:33:09.094Z,18.43
2018-07-04T03:37:23.862Z,18.47
2018-07-04T03:41:38.469Z,18.46
2018-07-04T03:45:53.200Z,18.44
2018-07-04T03:50:08.006Z,18.41
2018-07-04T03:54:22.628Z,18.44
2018-07-04T03:58:37.470Z,18.48
2018-07-04T04:02:52.169Z,18.52
2018-07-04T04:07:06.822Z,18.55
2018-07-04T04:11:21.478Z,18.61
2018-07-04T04:15:36.226Z,18.64
2018-07-04T04:19:50.888Z,18.72
2018-07-04T04:24:05.505Z,18.76
2018-07-04T04:28:20.237Z,18.83
2018-07-04T04:32:34.955Z,18.87
2018-07-04T04:36:49.642Z,18.92
2018-07-04T04:41:04.440Z,18.95
2018-07-04T04:45:19.215Z,19.02
2018-07-04T04:49:33.927Z,19.07
2018-07-04T04:53:48.627Z,19.09
2018-07-04T04:58:03.369Z,19.09
2018-07-04T05:02:18.098Z,19.13
2018-07-04T05:06:32.824Z,19.23
2018-07-04T05:10:47.505Z,19.33
2018-07-04T05:15:02.255Z,19.44
2018-07-04T05:19:16.955Z,19.53
2018-07-04T05:23:31.743Z,19.65
2018-07-04T05:27:46.450Z,19.74
2018-07-04T05:32:01.073Z,19.85
2018-07-04T05:36:15.786Z,19.99
2018-07-04T05:40:31.053Z,20.12
2018-07-04T05:44:45.819Z,20.31
2018-07-04T05:49:00.749Z,20.51
2018-07-04T05:53:15.790Z,20.65
2018-07-04T05:57:30.553Z,20.87
2018-07-04T06:01:45.195Z,21.13
2018-07-04T06:05:59.969Z,21.38
2018-07-04T06:10:14.695Z,21.59
2018-07-04T06:14:29.439Z,21.76
2018-07-04T06:18:44.081Z,21.96
2018-07-04T06:22:58.753Z,22.11
2018-07-04T06:27:13.341Z,22.25
2018-07-04T06:31:28.195Z,22.47
2018-07-04T06:35:44.162Z,22.66
2018-07-04T06:39:46.447Z,22.88
2018-07-04T06:43:48.659Z,23.12
2018-07-04T06:47:51.266Z,23.23
2018-07-04T06:51:53.485Z,23.40
2018-07-04T06:55:55.760Z,23.57
2018-07-04T07:04:49.639Z,23.86
2018-07-04T07:09:04.889Z,24.02
2018-07-04T07:13:19.620Z,24.19
2018-07-04T07:17:34.390Z,24.32
2018-07-04T07:21:49.091Z,24.43
2018-07-04T07:26:05.996Z,24.58
2018-07-04T07:30:20.766Z,24.72
2018-07-04T07:34:35.450Z,24.86
2018-07-04T07:38:50.101Z,24.97
2018-07-04T07:43:04.798Z,25.09
2018-07-04T07:47:19.601Z,25.17
2018-07-04T07:51:34.317Z,25.35
2018-07-04T07:55:49.050Z,25.57
2018-07-04T08:00:03.887Z,25.81
2018-07-04T08:09:36.238Z,26.35
2018-07-04T08:13:53.016Z,26.59
2018-07-04T08:18:07.971Z,26.77
2018-07-04T08:22:22.704Z,26.96
2018-07-04T08:26:37.580Z,27.08
2018-07-04T08:30:52.195Z,27.25
2018-07-04T08:35:06.895Z,27.43
2018-07-04T08:39:21.572Z,27.61
2018-07-04T08:43:36.236Z,27.82
2018-07-04T08:47:51.003Z,27.99
2018-07-04T08:52:05.612Z,28.11
2018-07-04T08:56:20.247Z,28.15
2018-07-04T09:00:34.934Z,28.28
2018-07-04T09:04:49.696Z,28.37
2018-07-04T09:09:04.310Z,28.47
2018-07-04T09:13:18.881Z,28.66
2018-07-04T09:17:33.540Z,28.82
2018-07-04T09:21:49.119Z,29.00
2018-07-04T09:26:03.733Z,29.13
2018-07-04T09:30:18.454Z,29.17
2018-07-04T09:34:33.306Z,29.06
2018-07-04T09:38:48.029Z,29.10
2018-07-04T09:43:02.587Z,29.19
2018-07-04T09:47:17.294Z,29.15
2018-07-04T09:51:32.030Z,29.25
2018-07-04T09:55:46.734Z,29.38
2018-07-04T10:00:01.483Z,29.42
2018-07-04T10:04:16.222Z,29.50
2018-07-04T10:08:30.854Z,29.62
2018-07-04T10:12:45.555Z,29.82
2018-07-04T10:17:00.190Z,29.97
2018-07-04T10:21:14.932Z,30.08
2018-07-04T10:25:29.685Z,30.11
2018-07-04T10:29:44.426Z,30.14
2018-07-04T10:33:59.127Z,30.19
2018-07-04T10:38:13.632Z,30.31
2018-07-04T10:42:28.279Z,30.41
2018-07-04T10:46:42.950Z,30.50
2018-07-04T10:50:57.749Z,30.48
2018-07-04T10:55:12.425Z,30.48
2018-07-04T10:59:27.134Z,30.58
2018-07-04T11:03:41.823Z,30.73
2018-07-04T11:07:56.493Z,30.85
2018-07-04T11:12:11.364Z,30.91
2018-07-04T11:16:26.126Z,30.87
2018-07-04T11:20:40.879Z,30.94
2018-07-04T11:24:55.787Z,31.04
2018-07-04T11:29:10.453Z,31.14
2018-07-04T11:33:25.180Z,31.21
2018-07-04T11:37:39.807Z,31.25
2018-07-04T11:41:54.837Z,31.33
2018-07-04T11:45:58.586Z,31.39
2018-07-04T11:50:00.819Z,31.33
2018-07-04T11:54:03.068Z,31.30
2018-07-04T11:58:05.333Z,31.25
2018-07-04T12:02:07.594Z,31.23
2018-07-04T12:06:22.478Z,31.09
2018-07-04T12:10:24.711Z,31.08
2018-07-04T12:14:26.993Z,31.16
2018-07-04T12:18:29.290Z,31.15
2018-07-04T12:22:31.849Z,31.07
2018-07-04T12:26:34.182Z,31.08
2018-07-04T12:30:36.473Z,31.14
2018-07-04T12:34:38.721Z,31.20
2018-07-04T12:38:40.968Z,31.29
2018-07-04T12:42:43.254Z,31.25
2018-07-04T12:46:45.509Z,31.14
2018-07-04T12:50:47.786Z,31.13
2018-07-04T12:54:53.161Z,31.22
2018-07-04T12:59:07.675Z,31.28
2018-07-04T13:03:22.464Z,31.27
2018-07-04T13:07:37.110Z,31.14
2018-07-04T13:11:51.808Z,31.13
2018-07-04T13:16:06.603Z,31.13
2018-07-04T13:20:21.210Z,31.10
2018-07-04T13:24:36.164Z,31.11
2018-07-04T13:28:51.314Z,31.13
2018-07-04T13:33:05.913Z,31.11
2018-07-04T13:37:20.592Z,31.12
2018-07-04T13:41:35.404Z,31.16
2018-07-04T13:45:50.059Z,31.26
2018-07-04T13:50:05.097Z,31.28
2018-07-04T13:54:19.697Z,31.28
2018-07-04T13:58:34.502Z,31.24
2018-07-04T14:02:49.325Z,31.25
2018-07-04T14:07:04.405Z,31.27
2018-07-04T14:11:19.036Z,31.30
2018-07-04T14:15:34.481Z,31.32
2018-07-04T14:19:49.222Z,31.30
2018-07-04T14:24:03.778Z,31.24
2018-07-04T14:28:18.513Z,31.09
2018-07-04T14:32:33.218Z,31.02
2018-07-04T14:36:48.054Z,30.97
2018-07-04T14:41:02.753Z,30.90
2018-07-04T14:45:17.643Z,30.91
2018-07-04T14:49:33.014Z,30.92
2018-07-04T14:53:47.652Z,30.94
2018-07-04T14:58:02.362Z,30.96
2018-07-04T15:02:16.981Z,30.98
2018-07-04T15:06:31.520Z,30.97
2018-07-04T15:10:46.169Z,30.99
2018-07-04T15:15:00.918Z,30.94
2018-07-04T15:19:15.582Z,30.84
2018-07-04T15:23:30.514Z,30.77
2018-07-04T15:27:45.118Z,30.66
2018-07-04T15:31:59.853Z,30.60
2018-07-04T15:36:14.635Z,30.55
2018-07-04T15:40:29.333Z,30.49
2018-07-04T15:44:44.042Z,30.50
2018-07-04T15:48:58.738Z,30.52
2018-07-04T15:53:13.488Z,30.52
2018-07-04T15:57:28.279Z,30.50
2018-07-04T16:01:42.986Z,30.50
2018-07-04T16:05:57.627Z,30.49
2018-07-04T16:10:12.291Z,30.49
2018-07-04T16:14:26.942Z,30.47
2018-07-04T16:18:41.682Z,30.39
2018-07-04T16:22:56.429Z,30.30
2018-07-04T16:27:11.118Z,30.21
2018-07-04T16:31:25.799Z,30.14
2018-07-04T16:35:40.725Z,30.11
2018-07-04T16:39:55.345Z,30.06
2018-07-04T16:44:09.971Z,29.99
2018-07-04T16:48:24.687Z,29.94
2018-07-04T16:52:39.292Z,29.87
2018-07-04T16:56:54.124Z,29.81
2018-07-04T17:01:08.624Z,29.74
2018-07-04T17:05:23.295Z,29.64
2018-07-04T17:09:38.002Z,29.58
2018-07-04T17:13:53.094Z,29.50
2018-07-04T17:18:07.754Z,29.46
2018-07-04T17:22:22.469Z,29.43
2018-07-04T17:26:37.344Z,29.38
2018-07-04T17:30:52.042Z,29.33
2018-07-04T17:35:06.674Z,29.28
2018-07-04T17:39:21.566Z,29.24
2018-07-04T17:43:36.423Z,29.25
2018-07-04T17:47:51.117Z,29.21
2018-07-04T17:52:05.817Z,29.15
2018-07-04T17:56:20.416Z,29.11
2018-07-04T18:00:35.158Z,29.07
2018-07-04T18:04:49.963Z,29.01
2018-07-04T18:09:04.919Z,28.96
2018-07-04T18:13:19.673Z,28.93
2018-07-04T18:17:34.414Z,28.90
2018-07-04T18:21:49.038Z,28.85
2018-07-04T18:26:03.785Z,28.79
2018-07-04T18:30:18.686Z,28.76
2018-07-04T18:34:33.231Z,28.70
2018-07-04T18:38:47.903Z,28.65
2018-07-04T18:43:02.616Z,28.57
2018-07-04T18:47:17.241Z,28.51
2018-07-04T18:51:32.012Z,28.45
2018-07-04T18:55:46.642Z,28.36
2018-07-04T19:00:01.307Z,28.27
2018-07-04T19:04:16.068Z,28.15
2018-07-04T19:08:30.978Z,28.06
2018-07-04T19:12:45.968Z,27.96
2018-07-04T19:17:01.030Z,27.86
2018-07-04T19:21:16.133Z,27.77
2018-07-04T19:25:30.766Z,27.69
2018-07-04T19:29:45.518Z,27.61
2018-07-04T19:34:00.142Z,27.53
2018-07-04T19:38:15.061Z,27.47
2018-07-04T19:42:29.699Z,27.37
2018-07-04T19:46:44.400Z,27.27
2018-07-04T19:50:59.046Z,27.19
2018-07-04T19:55:13.929Z,27.14
2018-07-04T19:59:28.541Z,27.07
2018-07-04T20:03:43.286Z,26.99
2018-07-04T20:07:57.974Z,26.91
2018-07-04T20:12:13.432Z,26.85
2018-07-04T20:16:28.089Z,26.76
2018-07-04T20:20:42.677Z,26.67
2018-07-04T20:24:57.269Z,26.54
2018-07-04T20:29:11.953Z,26.46
2018-07-04T20:33:26.666Z,26.39
2018-07-04T20:37:41.408Z,26.30
2018-07-04T20:41:57.147Z,26.22
2018-07-04T20:46:12.812Z,26.14
2018-07-04T20:50:27.414Z,26.05
2018-07-04T20:54:42.896Z,26.00
2018-07-04T20:58:59.540Z,25.97
2018-07-04T21:03:15.230Z,25.93
2018-07-04T21:07:29.831Z,25.88
2018-07-04T21:11:44.430Z,25.82
2018-07-04T21:16:00.093Z,25.75
2018-07-04T21:20:14.623Z,25.66
2018-07-04T21:24:34.036Z,25.56
2018-07-04T21:28:49.527Z,25.49
2018-07-04T21:33:05.107Z,25.42
2018-07-04T21:37:21.814Z,25.36
2018-07-04T21:41:38.427Z,25.29
2018-07-04T21:45:53.038Z,25.21
2018-07-04T21:50:08.576Z,25.14
2018-07-04T21:54:23.234Z,25.06
2018-07-04T21:58:41.222Z,25.02
2018-07-04T22:02:56.759Z,24.96
2018-07-04T22:07:16.184Z,24.83
2018-07-04T22:11:30.775Z,24.72
2018-07-04T22:15:45.384Z,24.65
2018-07-04T22:20:00.073Z,24.57
2018-07-04T22:24:14.682Z,24.49
2018-07-04T22:28:30.280Z,24.41
2018-07-04T22:32:44.826Z,24.34
2018-07-04T22:36:59.339Z,24.24
2018-07-04T22:41:19.615Z,24.13
2018-07-04T22:45:34.307Z,24.05
2018-07-04T22:49:49.895Z,24.01
2018-07-04T22:54:05.657Z,23.99
2018-07-04T22:58:20.233Z,23.96
2018-07-04T23:02:34.875Z,23.95
2018-07-04T23:06:49.507Z,23.90
2018-07-04T23:11:04.911Z,23.84
2018-07-04T23:15:19.428Z,23.79
2018-07-04T23:19:34.092Z,23.74
2018-07-04T23:23:49.167Z,23.72
2018-07-04T23:28:04.522Z,23.71
2018-07-04T23:32:20.091Z,23.67
2018-07-04T23:36:36.324Z,23.60
2018-07-04T23:40:52.902Z,23.56
2018-07-04T23:45:08.423Z,23.55
2018-07-04T23:49:22.972Z,23.55
2018-07-04T23:53:38.538Z,23.53
2018-07-04T23:57:53.130Z,23.50
